Time;durP1;ratioP1;P1;durP2;ratioP2;P2;SDS_P1;SDS_P2;PMS_P1;PMS_P2;Temp;Humidity;BMP_temperature;BMP_pressure;BME280_temperature;BME280_humidity;BME280_pressure;Samples;Min_cycle;Max_cycle;Signal;HPM_P1;HPM_P2
2023/09/21 00:00:09;;;;;;;2.97;1.83;;;20.40;74.20;;;;;;5076074;28;20495;-58
2023/09/21 00:02:38;;;;;;;4.73;1.90;;;20.30;74.60;;;;;;5076169;28;20855;-57
2023/09/21 00:05:06;;;;;;;2.00;1.63;;;20.30;74.70;;;;;;5076190;28;20476;-58
2023/09/21 00:07:33;;;;;;;1.33;1.20;;;20.40;75.30;;;;;;5076018;28;20444;-58
2023/09/21 00:09:59;;;;;;;4.70;2.13;;;20.40;75.00;;;;;;5075889;28;20873;-58
2023/09/21 00:12:26;;;;;;;2.40;1.80;;;20.40;75.20;;;;;;5075972;28;20441;-58
2023/09/21 00:14:53;;;;;;;2.10;1.83;;;20.40;75.00;;;;;;5075794;28;20441;-58
2023/09/21 00:17:20;;;;;;;3.50;2.10;;;20.40;75.10;;;;;;5074787;28;20452;-58
2023/09/21 00:19:50;;;;;;;1.93;1.80;;;20.40;75.40;;;;;;5075786;28;20861;-58
2023/09/21 00:22:17;;;;;;;4.10;2.17;;;20.40;75.30;;;;;;5075749;28;20444;-58
2023/09/21 00:24:44;;;;;;;8.93;2.10;;;20.30;75.00;;;;;;5075541;28;20568;-58
2023/09/21 00:27:12;;;;;;;2.80;1.80;;;20.30;75.40;;;;;;5075739;28;20501;-58
2023/09/21 00:29:39;;;;;;;2.07;1.70;;;20.20;75.80;;;;;;5075490;28;20518;-58
2023/09/21 00:32:05;;;;;;;2.00;1.80;;;20.10;76.10;;;;;;5075557;28;20448;-58
2023/09/21 00:34:34;;;;;;;2.77;1.90;;;20.10;76.50;;;;;;5075567;28;20443;-58
2023/09/21 00:37:02;;;;;;;3.23;1.90;;;20.10;76.70;;;;;;5075472;28;20531;-58
2023/09/21 00:39:31;;;;;;;2.50;1.90;;;20.00;76.90;;;;;;5075395;28;20460;-58
2023/09/21 00:41:58;;;;;;;3.97;2.00;;;20.00;77.80;;;;;;5075426;28;20448;-58
2023/09/21 00:44:26;;;;;;;2.20;1.57;;;20.00;77.50;;;;;;5075431;28;20472;-57
2023/09/21 00:46:53;;;;;;;4.57;1.77;;;19.90;77.40;;;;;;5075338;28;20453;-58
2023/09/21 00:49:20;;;;;;;2.40;1.50;;;19.90;77.50;;;;;;5074937;28;21046;-58
2023/09/21 00:51:47;;;;;;;1.93;1.83;;;19.90;77.50;;;;;;5075213;28;20851;-58
2023/09/21 00:54:15;;;;;;;1.80;1.70;;;19.90;77.60;;;;;;5074887;28;20989;-58
2023/09/21 00:56:42;;;;;;;2.00;1.80;;;19.90;78.00;;;;;;5075369;28;20437;-58
2023/09/21 00:59:15;;;;;;;2.90;2.07;;;19.90;77.80;;;;;;5074976;28;20472;-58
2023/09/21 01:01:43;;;;;;;2.40;1.50;;;19.90;77.80;;;;;;5074981;28;20847;-58
2023/09/21 01:04:12;;;;;;;2.00;1.83;;;19.90;77.80;;;;;;5075011;28;20524;-58
2023/09/21 01:06:41;;;;;;;1.87;1.70;;;19.80;77.80;;;;;;5074941;28;20448;-58
2023/09/21 01:09:13;;;;;;;3.23;2.00;;;19.90;78.10;;;;;;5074836;28;20460;-58
2023/09/21 01:11:41;;;;;;;2.70;2.03;;;19.90;78.60;;;;;;5074954;28;20490;-58
2023/09/21 01:14:07;;;;;;;1.87;1.70;;;19.90;77.70;;;;;;5074776;28;20494;-58
2023/09/21 01:16:34;;;;;;;3.43;1.97;;;20.00;77.90;;;;;;5075852;28;20460;-58
2023/09/21 01:19:01;;;;;;;3.30;2.20;;;20.00;77.50;;;;;;5074653;28;20457;-58
2023/09/21 01:21:35;;;;;;;2.50;2.23;;;19.90;77.50;;;;;;5074690;28;20457;-58
2023/09/21 01:24:04;;;;;;;1.77;1.60;;;19.90;77.90;;;;;;5074073;28;20520;-58
2023/09/21 01:26:32;;;;;;;2.23;1.87;;;19.80;77.90;;;;;;5074523;28;20452;-58
2023/09/21 01:28:59;;;;;;;2.43;1.73;;;19.80;78.20;;;;;;5074488;28;20471;-58
2023/09/21 01:31:26;;;;;;;2.87;1.47;;;19.80;78.10;;;;;;5074366;28;20456;-57
2023/09/21 01:33:52;;;;;;;2.20;1.60;;;19.80;78.00;;;;;;5074193;28;20926;-58
2023/09/21 01:36:23;;;;;;;5.10;2.03;;;19.80;78.00;;;;;;5074382;28;20807;-59
2023/09/21 01:38:50;;;;;;;3.90;1.73;;;19.80;78.10;;;;;;5074235;28;20468;-59
2023/09/21 01:41:19;;;;;;;1.70;1.40;;;19.70;78.20;;;;;;5074304;28;20444;-58
2023/09/21 01:43:46;;;;;;;1.97;1.83;;;19.80;78.30;;;;;;5074033;28;20448;-58
2023/09/21 01:46:14;;;;;;;2.33;2.00;;;19.80;78.00;;;;;;5075017;28;20444;-58
2023/09/21 01:48:40;;;;;;;2.27;1.83;;;19.80;78.30;;;;;;5073904;28;20813;-58
2023/09/21 01:51:07;;;;;;;3.03;1.77;;;19.90;78.20;;;;;;5074267;28;20443;-58
2023/09/21 01:53:34;;;;;;;2.00;1.57;;;19.80;78.00;;;;;;5073953;28;20532;-58
2023/09/21 01:56:01;;;;;;;3.63;1.67;;;19.80;77.90;;;;;;5073928;28;20444;-58
2023/09/21 01:58:29;;;;;;;3.07;1.60;;;19.80;78.00;;;;;;5074513;28;20445;-58
2023/09/21 02:00:56;;;;;;;2.33;1.87;;;19.70;77.90;;;;;;5073920;28;20441;-58
2023/09/21 02:03:28;;;;;;;2.63;1.90;;;19.70;78.10;;;;;;5073757;28;20449;-58
2023/09/21 02:05:57;;;;;;;2.30;2.10;;;19.60;78.10;;;;;;5073792;28;20468;-58
2023/09/21 02:08:24;;;;;;;2.20;1.83;;;19.60;78.50;;;;;;5073864;28;20531;-58
2023/09/21 02:10:51;;;;;;;2.53;1.70;;;19.50;78.80;;;;;;5073614;28;20902;-57
2023/09/21 02:13:18;;;;;;;2.53;2.00;;;19.50;79.00;;;;;;5073775;28;20447;-58
2023/09/21 02:15:47;;;;;;;1.57;1.43;;;19.50;78.90;;;;;;5073816;28;20441;-58
2023/09/21 02:18:14;;;;;;;2.30;1.83;;;19.60;79.20;;;;;;5073670;28;20456;-58
2023/09/21 02:20:44;;;;;;;2.30;1.73;;;19.50;79.30;;;;;;5073384;28;20931;-58
2023/09/21 02:23:12;;;;;;;2.50;1.60;;;19.50;79.30;;;;;;5073580;28;20448;-58
2023/09/21 02:25:40;;;;;;;2.37;1.60;;;19.60;79.30;;;;;;5073730;28;20506;-58
2023/09/21 02:28:09;;;;;;;1.60;1.50;;;19.50;79.20;;;;;;5073279;28;20934;-58
2023/09/21 02:30:37;;;;;;;3.10;1.83;;;19.60;79.10;;;;;;5073430;28;20496;-58
2023/09/21 02:33:07;;;;;;;2.30;1.53;;;19.60;78.80;;;;;;5073372;28;20475;-58
2023/09/21 02:35:35;;;;;;;1.83;1.70;;;19.60;78.60;;;;;;5073655;28;20456;-57
2023/09/21 02:38:03;;;;;;;5.30;2.00;;;19.60;78.70;;;;;;5073673;28;20448;-58
2023/09/21 02:40:29;;;;;;;3.20;1.53;;;19.60;79.20;;;;;;5072403;28;21001;-58
2023/09/21 02:42:56;;;;;;;2.70;2.00;;;19.60;78.70;;;;;;5073278;28;20448;-58
2023/09/21 02:45:24;;;;;;;2.33;2.00;;;19.60;78.60;;;;;;5073216;28;20484;-58
2023/09/21 02:47:52;;;;;;;5.30;1.80;;;19.70;78.90;;;;;;5073024;28;20819;-58
2023/09/21 02:50:22;;;;;;;3.00;2.17;;;19.60;79.00;;;;;;5073200;28;20500;-58
2023/09/21 02:52:55;;;;;;;3.23;1.90;;;19.60;78.60;;;;;;5073504;28;20455;-58
2023/09/21 02:55:22;;;;;;;3.40;1.80;;;19.60;78.70;;;;;;5073497;28;20421;-58
2023/09/21 02:57:55;;;;;;;1.73;1.63;;;19.50;79.00;;;;;;5073233;28;20467;-58
2023/09/21 03:00:27;;;;;;;2.57;1.70;;;19.50;79.10;;;;;;5073220;28;20460;-58
2023/09/21 03:02:55;;;;;;;5.70;2.03;;;19.50;79.40;;;;;;5073267;28;20440;-58
2023/09/21 03:05:24;;;;;;;1.80;1.67;;;19.50;79.80;;;;;;5073016;28;20570;-58
2023/09/21 03:07:51;;;;;;;4.63;1.90;;;19.40;79.90;;;;;;5072812;28;20445;-58
2023/09/21 03:10:19;;;;;;;2.87;1.83;;;19.40;79.90;;;;;;5072745;28;20841;-58
2023/09/21 03:12:48;;;;;;;2.40;1.80;;;19.40;79.80;;;;;;5073001;28;20480;-58
2023/09/21 03:15:18;;;;;;;3.83;1.83;;;19.30;80.10;;;;;;5073038;28;20778;-58
2023/09/21 03:17:45;;;;;;;2.00;1.53;;;19.40;80.10;;;;;;5073000;28;20627;-58
2023/09/21 03:20:25;;;;;;;2.07;1.57;;;19.40;79.90;;;;;;5072983;28;20564;-58
2023/09/21 03:22:54;;;;;;;3.00;2.23;;;19.40;80.20;;;;;;5072915;28;20514;-57
2023/09/21 03:25:27;;;;;;;3.23;2.00;;;19.40;80.30;;;;;;5072534;28;20480;-58
2023/09/21 03:27:54;;;;;;;2.80;1.90;;;19.40;80.20;;;;;;5072644;28;20894;-58
2023/09/21 03:30:23;;;;;;;2.27;1.97;;;19.40;80.00;;;;;;5072647;28;20457;-57
2023/09/21 03:32:50;;;;;;;1.80;1.70;;;19.50;80.20;;;;;;5072878;28;20452;-58
2023/09/21 03:35:17;;;;;;;2.90;1.83;;;19.50;80.40;;;;;;5072874;28;20445;-58
2023/09/21 03:37:45;;;;;;;2.63;2.20;;;19.40;80.10;;;;;;5072915;28;20467;-58
2023/09/21 03:40:13;;;;;;;2.10;1.67;;;19.40;80.40;;;;;;5072742;28;20473;-58
2023/09/21 03:42:41;;;;;;;2.63;1.80;;;19.50;80.50;;;;;;5072750;28;20441;-58
2023/09/21 03:45:09;;;;;;;3.43;2.10;;;19.50;80.20;;;;;;5072274;28;20844;-58
2023/09/21 03:47:36;;;;;;;1.97;1.80;;;19.50;80.20;;;;;;5073053;28;20447;-58
2023/09/21 03:50:05;;;;;;;2.10;1.80;;;19.50;80.20;;;;;;5072351;28;20519;-58
2023/09/21 03:52:32;;;;;;;3.00;2.00;;;19.50;80.00;;;;;;5074888;28;20448;-58
2023/09/21 03:55:00;;;;;;;2.10;1.90;;;19.50;80.10;;;;;;5076284;28;20444;-58
2023/09/21 03:57:28;;;;;;;1.60;1.50;;;19.50;80.20;;;;;;5076357;28;20445;-58
2023/09/21 03:59:57;;;;;;;6.27;1.93;;;19.50;80.00;;;;;;5076167;28;20544;-58
2023/09/21 04:02:24;;;;;;;2.57;2.37;;;19.50;80.10;;;;;;5076331;28;20475;-58
2023/09/21 04:04:51;;;;;;;2.20;1.77;;;19.50;80.80;;;;;;5076360;28;20476;-58
2023/09/21 04:07:19;;;;;;;2.00;1.80;;;19.40;80.40;;;;;;5076061;28;20440;-58
2023/09/21 04:09:46;;;;;;;2.93;1.73;;;19.40;80.10;;;;;;5076008;28;20468;-58
2023/09/21 04:12:13;;;;;;;2.60;1.90;;;19.50;80.50;;;;;;5076030;28;20476;-58
2023/09/21 04:14:45;;;;;;;2.10;1.90;;;19.40;80.20;;;;;;5075864;28;20445;-58
2023/09/21 04:17:12;;;;;;;2.87;1.90;;;19.40;80.20;;;;;;5075935;28;20478;-58
2023/09/21 04:19:39;;;;;;;3.40;2.23;;;19.50;80.00;;;;;;5075860;28;20465;-58
2023/09/21 04:22:06;;;;;;;3.87;1.90;;;19.40;80.00;;;;;;5076171;28;20444;-58
2023/09/21 04:24:33;;;;;;;3.03;2.00;;;19.40;80.00;;;;;;5075272;28;20980;-58
2023/09/21 04:27:00;;;;;;;1.63;1.50;;;19.40;80.30;;;;;;5075649;28;20494;-58
2023/09/21 04:29:27;;;;;;;3.50;1.83;;;19.50;80.00;;;;;;5075483;28;20464;-58
2023/09/21 04:31:55;;;;;;;2.40;2.20;;;19.50;80.10;;;;;;5076049;28;20441;-58
2023/09/21 04:34:22;;;;;;;2.20;1.67;;;19.40;79.90;;;;;;5075993;28;20448;-59
2023/09/21 04:36:49;;;;;;;2.40;2.20;;;19.50;80.30;;;;;;5075862;28;20441;-58
2023/09/21 04:39:15;;;;;;;3.67;2.43;;;19.40;80.20;;;;;;5075738;28;20832;-58
2023/09/21 04:41:42;;;;;;;1.80;1.70;;;19.40;80.50;;;;;;5075907;28;20470;-58
2023/09/21 04:44:09;;;;;;;2.20;2.00;;;19.30;80.60;;;;;;5075799;28;20440;-58
2023/09/21 04:46:37;;;;;;;1.93;1.73;;;19.30;80.80;;;;;;5075494;28;20508;-58
2023/09/21 04:49:05;;;;;;;2.30;1.60;;;19.40;80.90;;;;;;5076109;28;20508;-58
2023/09/21 04:51:33;;;;;;;2.37;1.90;;;19.40;80.50;;;;;;5075248;28;20479;-58
2023/09/21 04:53:59;;;;;;;2.23;1.97;;;19.50;80.90;;;;;;5074925;28;20945;-59
2023/09/21 04:56:26;;;;;;;3.40;2.00;;;19.50;80.80;;;;;;5075398;28;20456;-58
2023/09/21 04:58:55;;;;;;;2.80;1.93;;;19.40;80.60;;;;;;5075148;28;20553;-58
2023/09/21 05:01:24;;;;;;;2.90;2.20;;;19.40;81.00;;;;;;5074882;28;20453;-58
2023/09/21 05:03:50;;;;;;;1.93;1.67;;;19.50;80.70;;;;;;5074785;28;20448;-58
2023/09/21 05:06:19;;;;;;;2.13;1.93;;;19.50;81.10;;;;;;5075225;28;20480;-58
2023/09/21 05:08:46;;;;;;;2.70;2.00;;;19.50;80.80;;;;;;5074866;28;20445;-58
2023/09/21 05:11:13;;;;;;;2.20;2.00;;;19.40;80.80;;;;;;5074757;28;20449;-58
2023/09/21 05:13:40;;;;;;;3.10;2.17;;;19.40;81.40;;;;;;5074822;28;20447;-58
2023/09/21 05:16:06;;;;;;;3.20;2.00;;;19.40;81.40;;;;;;5074802;28;20487;-58
2023/09/21 05:18:33;;;;;;;3.30;2.00;;;19.40;81.60;;;;;;5074381;28;20966;-58
2023/09/21 05:21:01;;;;;;;4.50;1.90;;;19.40;81.60;;;;;;5074731;28;20448;-58
2023/09/21 05:23:29;;;;;;;5.60;2.27;;;19.30;82.00;;;;;;5074118;28;20487;-57
2023/09/21 05:25:57;;;;;;;2.20;2.00;;;19.40;82.20;;;;;;5074592;28;20465;-58
2023/09/21 05:28:24;;;;;;;2.70;2.17;;;19.40;82.30;;;;;;5074581;28;20456;-58
2023/09/21 05:30:50;;;;;;;3.40;2.40;;;19.30;82.30;;;;;;5074081;28;20907;-58
2023/09/21 05:33:18;;;;;;;8.10;2.30;;;19.30;82.40;;;;;;5074217;28;20946;-58
2023/09/21 05:35:51;;;;;;;2.10;1.90;;;19.40;82.30;;;;;;5074382;28;20487;-57
2023/09/21 05:38:17;;;;;;;2.20;2.00;;;19.40;82.60;;;;;;5074295;28;20478;-58
2023/09/21 05:40:45;;;;;;;3.23;2.10;;;19.30;82.70;;;;;;5074280;28;20476;-58
2023/09/21 05:43:13;;;;;;;4.80;2.07;;;19.40;82.80;;;;;;5074056;28;20938;-57
2023/09/21 05:45:39;;;;;;;4.40;2.47;;;19.40;82.60;;;;;;5074151;28;20488;-58
2023/09/21 05:48:14;;;;;;;2.30;2.10;;;19.40;83.00;;;;;;5074638;28;20810;-58
2023/09/21 05:50:42;;;;;;;3.90;2.60;;;19.40;83.60;;;;;;5074031;28;20931;-58
2023/09/21 05:53:09;;;;;;;5.03;2.47;;;19.40;83.50;;;;;;5074075;28;20447;-58
2023/09/21 05:55:36;;;;;;;2.80;2.33;;;19.50;83.40;;;;;;5074001;28;20529;-58
2023/09/21 05:58:07;;;;;;;2.60;2.00;;;19.50;83.30;;;;;;5073962;28;20452;-58
2023/09/21 06:00:34;;;;;;;3.63;2.13;;;19.50;83.40;;;;;;5073986;28;20563;-58
2023/09/21 06:03:01;;;;;;;5.07;2.70;;;19.60;83.20;;;;;;5073860;28;20444;-58
2023/09/21 06:05:28;;;;;;;3.60;2.33;;;19.70;82.90;;;;;;5073778;28;20480;-58
2023/09/21 06:07:55;;;;;;;2.53;2.33;;;19.70;82.80;;;;;;5073755;28;20448;-58
2023/09/21 06:10:22;;;;;;;2.53;2.23;;;19.90;82.60;;;;;;5073298;28;20465;-58
2023/09/21 06:12:50;;;;;;;2.40;2.20;;;19.90;82.70;;;;;;5073589;28;20966;-58
2023/09/21 06:15:18;;;;;;;3.83;1.93;;;19.90;82.40;;;;;;5072880;28;20480;-58
2023/09/21 06:17:46;;;;;;;3.73;2.40;;;20.10;82.30;;;;;;5073587;28;20467;-58
2023/09/21 06:20:12;;;;;;;3.13;2.17;;;20.00;81.70;;;;;;5073611;28;20460;-58
2023/09/21 06:22:39;;;;;;;3.00;2.13;;;20.10;82.10;;;;;;5074691;28;20839;-58
2023/09/21 06:25:07;;;;;;;3.43;2.03;;;20.10;81.80;;;;;;5073266;28;20523;-58
2023/09/21 06:27:36;;;;;;;2.00;1.57;;;20.20;82.10;;;;;;5073190;28;20856;-58
2023/09/21 06:30:04;;;;;;;1.83;1.67;;;20.30;81.60;;;;;;5073616;28;20464;-58
2023/09/21 06:32:32;;;;;;;4.93;2.83;;;20.30;81.60;;;;;;5073569;28;20444;-58
2023/09/21 06:34:59;;;;;;;3.90;2.30;;;20.40;81.60;;;;;;5073398;28;20445;-58
2023/09/21 06:37:29;;;;;;;2.57;1.97;;;20.50;81.20;;;;;;5073356;28;20499;-59
2023/09/21 06:39:57;;;;;;;3.60;2.13;;;20.50;81.20;;;;;;5073459;28;20552;-58
2023/09/21 06:42:24;;;;;;;2.10;1.90;;;20.60;81.00;;;;;;5073401;28;20458;-56
2023/09/21 06:44:54;;;;;;;2.33;1.83;;;20.70;80.70;;;;;;5073308;28;20451;-56
2023/09/21 06:47:22;;;;;;;4.43;2.30;;;20.80;80.40;;;;;;5073273;28;20798;-56
2023/09/21 06:49:53;;;;;;;2.10;1.93;;;20.90;80.30;;;;;;5073263;28;20511;-56
2023/09/21 06:52:21;;;;;;;4.20;2.30;;;20.90;79.80;;;;;;5072949;28;20952;-55
2023/09/21 06:54:48;;;;;;;2.60;2.40;;;21.00;79.70;;;;;;5073206;28;20483;-56
2023/09/21 06:57:15;;;;;;;2.40;1.93;;;21.10;79.50;;;;;;5073220;28;20437;-56
2023/09/21 06:59:43;;;;;;;4.87;2.50;;;21.20;79.30;;;;;;5073028;28;20468;-56
2023/09/21 07:02:09;;;;;;;5.87;2.40;;;21.10;79.20;;;;;;5073150;28;20449;-59
2023/09/21 07:04:37;;;;;;;4.13;2.30;;;21.30;79.30;;;;;;5073128;28;20444;-59
2023/09/21 07:07:06;;;;;;;2.40;2.13;;;21.40;78.70;;;;;;5073062;28;20514;-59
2023/09/21 07:09:34;;;;;;;3.33;2.10;;;21.50;78.60;;;;;;5072651;28;21045;-58
2023/09/21 07:12:01;;;;;;;2.57;1.83;;;21.60;78.10;;;;;;5073141;28;20881;-58
2023/09/21 07:14:28;;;;;;;6.00;2.37;;;21.70;77.90;;;;;;5072983;28;20498;-58
2023/09/21 07:16:56;;;;;;;4.17;2.50;;;21.60;77.40;;;;;;5073238;28;20443;-58
2023/09/21 07:19:23;;;;;;;3.87;2.20;;;21.50;78.20;;;;;;5072946;28;20559;-58
2023/09/21 07:21:50;;;;;;;4.47;2.20;;;21.50;78.10;;;;;;5072910;28;20793;-58
2023/09/21 07:24:18;;;;;;;3.77;2.47;;;21.50;77.90;;;;;;5072575;28;20825;-58
2023/09/21 07:26:45;;;;;;;9.43;3.20;;;21.40;77.90;;;;;;5073983;28;20849;-58
2023/09/21 07:29:12;;;;;;;2.90;2.00;;;21.40;78.50;;;;;;5076791;28;20464;-58
2023/09/21 07:31:39;;;;;;;6.13;2.20;;;21.60;79.20;;;;;;5076409;28;20965;-58
2023/09/21 07:34:06;;;;;;;3.33;2.13;;;21.60;78.50;;;;;;5076684;28;20444;-58
2023/09/21 07:36:34;;;;;;;3.90;1.90;;;21.80;78.60;;;;;;5076364;28;20958;-58
2023/09/21 07:39:03;;;;;;;2.97;2.30;;;21.90;77.60;;;;;;5076555;28;20508;-58
2023/09/21 07:41:31;;;;;;;3.27;1.93;;;22.10;77.50;;;;;;5076230;28;20851;-57
2023/09/21 07:43:58;;;;;;;2.50;1.80;;;22.20;76.50;;;;;;5076373;28;20451;-58
2023/09/21 07:46:25;;;;;;;2.80;1.77;;;22.40;76.20;;;;;;5076417;28;20484;-58
2023/09/21 07:48:51;;;;;;;3.47;2.40;;;22.50;75.50;;;;;;5076336;28;20464;-58
2023/09/21 07:51:19;;;;;;;2.10;1.90;;;22.60;75.40;;;;;;5076563;28;20440;-58
2023/09/21 07:53:45;;;;;;;3.43;2.23;;;22.70;75.30;;;;;;5076194;28;20449;-58
2023/09/21 07:56:13;;;;;;;2.00;1.87;;;22.70;75.30;;;;;;5076423;28;20840;-58
2023/09/21 07:58:41;;;;;;;7.17;2.40;;;22.90;75.60;;;;;;5076131;28;20513;-58
2023/09/21 08:01:08;;;;;;;3.93;2.50;;;22.90;74.90;;;;;;5076132;28;20452;-58
2023/09/21 08:03:34;;;;;;;2.27;2.07;;;22.90;74.40;;;;;;5076136;28;20449;-56
2023/09/21 08:06:01;;;;;;;3.90;2.27;;;23.00;74.40;;;;;;5076047;28;20445;-56
2023/09/21 08:08:28;;;;;;;3.90;2.03;;;23.00;74.20;;;;;;5076014;28;20444;-57
2023/09/21 08:10:56;;;;;;;4.13;2.27;;;23.10;74.80;;;;;;5075708;28;20934;-56
2023/09/21 08:13:26;;;;;;;2.17;1.93;;;23.20;74.70;;;;;;5075562;28;20448;-56
2023/09/21 08:15:54;;;;;;;2.53;2.33;;;23.20;74.30;;;;;;5075565;28;20939;-56
2023/09/21 08:18:20;;;;;;;2.63;1.70;;;23.20;74.40;;;;;;5076053;28;20445;-56
2023/09/21 08:20:47;;;;;;;2.63;1.97;;;23.20;75.00;;;;;;5075929;28;20471;-56
2023/09/21 08:23:14;;;;;;;2.87;2.10;;;23.10;74.80;;;;;;5075761;28;20451;-56
2023/09/21 08:25:41;;;;;;;2.73;2.00;;;23.20;75.20;;;;;;5075581;28;20903;-56
2023/09/21 08:28:08;;;;;;;7.13;2.50;;;23.30;75.20;;;;;;5075779;28;20516;-57
2023/09/21 08:30:35;;;;;;;7.50;3.03;;;23.30;74.60;;;;;;5075665;28;20514;-58
2023/09/21 08:33:07;;;;;;;5.87;2.30;;;23.20;74.80;;;;;;5075728;28;20445;-58
2023/09/21 08:35:34;;;;;;;2.40;2.20;;;23.30;75.10;;;;;;5075544;28;20829;-58
2023/09/21 08:38:01;;;;;;;3.10;2.40;;;23.20;75.20;;;;;;5074720;28;20445;-58
2023/09/21 08:40:30;;;;;;;5.47;2.77;;;23.00;75.80;;;;;;5075422;28;20889;-58
2023/09/21 08:42:59;;;;;;;3.40;2.50;;;23.00;76.00;;;;;;5075125;28;20817;-58
2023/09/21 08:45:25;;;;;;;2.77;2.17;;;23.10;76.40;;;;;;5075390;28;20449;-58
2023/09/21 08:47:53;;;;;;;3.13;2.20;;;23.10;76.30;;;;;;5075364;28;20484;-57
2023/09/21 08:50:22;;;;;;;2.47;2.17;;;23.20;77.20;;;;;;5075517;28;20469;-57
2023/09/21 08:52:53;;;;;;;5.00;2.40;;;23.20;76.30;;;;;;5075272;28;20471;-57
2023/09/21 08:55:21;;;;;;;2.83;2.63;;;23.30;76.50;;;;;;5078648;28;20857;-57
2023/09/21 08:57:47;;;;;;;5.23;2.57;;;23.40;76.40;;;;;;5095438;28;20432;-56
2023/09/21 09:00:16;;;;;;;3.60;2.27;;;23.30;76.30;;;;;;5095634;28;20451;-57
2023/09/21 09:02:43;;;;;;;2.47;2.27;;;23.30;76.00;;;;;;5075065;28;20441;-57
2023/09/21 09:05:11;;;;;;;2.63;2.10;;;23.30;76.20;;;;;;5085319;28;20442;-56
2023/09/21 09:07:41;;;;;;;4.60;2.70;;;23.30;76.20;;;;;;5095188;28;20511;-57
2023/09/21 09:10:10;;;;;;;4.63;2.70;;;23.40;76.50;;;;;;5094725;28;20459;-57
2023/09/21 09:12:37;;;;;;;3.80;2.23;;;23.40;76.40;;;;;;5093609;28;20475;-57
2023/09/21 09:15:05;;;;;;;3.87;2.07;;;23.50;76.50;;;;;;5094221;28;20524;-56
2023/09/21 09:17:33;;;;;;;4.43;2.10;;;23.50;75.90;;;;;;5095012;28;20428;-56
2023/09/21 09:20:02;;;;;;;4.40;2.03;;;23.50;76.00;;;;;;5095094;28;20547;-57
2023/09/21 09:22:31;;;;;;;6.53;2.47;;;23.60;76.00;;;;;;5094620;28;20819;-56
2023/09/21 09:25:04;;;;;;;5.07;2.13;;;23.60;75.60;;;;;;5094620;28;20467;-57
2023/09/21 09:27:31;;;;;;;6.93;2.40;;;23.60;75.40;;;;;;5094913;28;20542;-57
2023/09/21 09:29:59;;;;;;;3.30;2.10;;;23.60;74.60;;;;;;5094816;28;20499;-56
2023/09/21 09:32:30;;;;;;;7.80;2.13;;;23.60;74.80;;;;;;5094668;28;20475;-56
2023/09/21 09:34:57;;;;;;;2.67;2.43;;;23.60;74.50;;;;;;5094499;28;20852;-56
2023/09/21 09:37:25;;;;;;;2.00;1.70;;;23.30;74.50;;;;;;5094665;28;20479;-57
2023/09/21 09:39:52;;;;;;;2.90;1.63;;;23.30;75.20;;;;;;5094582;28;20562;-56
2023/09/21 09:42:22;;;;;;;2.83;2.23;;;23.30;75.20;;;;;;5095479;28;20447;-57
2023/09/21 09:44:51;;;;;;;3.93;2.10;;;23.30;75.20;;;;;;5094171;28;20460;-56
2023/09/21 09:47:21;;;;;;;7.53;2.23;;;23.30;75.30;;;;;;5094356;28;20479;-57
2023/09/21 09:49:51;;;;;;;3.03;2.20;;;23.30;74.80;;;;;;5087848;28;20457;-57
2023/09/21 09:52:20;;;;;;;4.37;2.10;;;23.30;75.30;;;;;;5074676;28;20518;-57
2023/09/21 09:54:48;;;;;;;4.10;2.20;;;23.30;75.70;;;;;;5074049;28;20453;-57
2023/09/21 09:57:15;;;;;;;4.67;2.03;;;23.30;75.50;;;;;;5074014;28;20536;-57
2023/09/21 09:59:44;;;;;;;3.50;2.17;;;23.40;75.80;;;;;;5080244;28;21022;-56
2023/09/21 10:02:17;;;;;;;4.03;1.80;;;23.40;75.50;;;;;;5094123;28;20872;-57
2023/09/21 10:04:46;;;;;;;5.03;2.10;;;23.50;74.70;;;;;;5094122;28;20428;-57
2023/09/21 10:07:16;;;;;;;4.20;1.90;;;23.40;74.40;;;;;;5094015;28;20567;-57
2023/09/21 10:09:43;;;;;;;2.00;1.80;;;23.50;74.50;;;;;;5093884;28;20502;-57
2023/09/21 10:12:12;;;;;;;8.67;2.33;;;23.60;74.70;;;;;;5094058;28;20438;-57
2023/09/21 10:14:45;;;;;;;4.27;2.03;;;23.60;74.20;;;;;;5093709;28;20451;-57
2023/09/21 10:17:14;;;;;;;6.60;1.97;;;23.70;74.40;;;;;;5093684;28;20424;-57
2023/09/21 10:19:43;;;;;;;2.23;1.80;;;23.80;74.10;;;;;;5092818;28;21015;-57
2023/09/21 10:22:23;;;;;;;3.90;1.90;;;23.80;73.90;;;;;;5093488;28;20567;-56
2023/09/21 10:24:51;;;;;;;2.27;1.80;;;23.80;73.30;;;;;;5093197;28;20493;-57
2023/09/21 10:27:21;;;;;;;7.63;2.70;;;23.90;73.40;;;;;;5093605;28;20530;-57
2023/09/21 10:29:53;;;;;;;3.10;1.50;;;23.90;73.50;;;;;;5094006;28;20550;-57
2023/09/21 10:32:23;;;;;;;3.10;1.87;;;24.00;73.60;;;;;;5093572;28;20527;-57
2023/09/21 10:34:50;;;;;;;6.20;2.50;;;24.10;72.90;;;;;;5093631;28;20434;-56
2023/09/21 10:37:26;;;;;;;4.47;2.00;;;24.20;72.70;;;;;;5092760;28;20952;-57
2023/09/21 10:39:58;;;;;;;2.00;1.70;;;24.30;72.60;;;;;;5083215;28;20554;-56
2023/09/21 10:42:33;;;;;;;4.43;2.00;;;24.30;72.30;;;;;;5093352;28;20444;-56
2023/09/21 10:45:07;;;;;;;8.70;2.13;;;24.40;71.30;;;;;;5093533;28;20825;-58
2023/09/21 10:47:36;;;;;;;3.10;1.87;;;24.40;71.20;;;;;;5092008;28;21066;-58
2023/09/21 10:50:06;;;;;;;3.47;1.80;;;24.30;71.00;;;;;;5088278;28;20480;-57
2023/09/21 10:52:34;;;;;;;3.23;1.77;;;24.30;71.60;;;;;;5087648;28;20448;-57
2023/09/21 10:55:01;;;;;;;3.43;1.53;;;24.40;72.10;;;;;;5093447;28;20440;-57
2023/09/21 10:57:29;;;;;;;4.10;1.83;;;24.30;72.10;;;;;;5087065;28;20448;-57
2023/09/21 10:59:59;;;;;;;4.30;1.57;;;24.20;72.60;;;;;;5073120;28;20461;-57
2023/09/21 11:02:31;;;;;;;4.77;1.90;;;24.10;73.40;;;;;;5076875;28;20539;-57
2023/09/21 11:05:00;;;;;;;4.27;1.73;;;24.10;73.80;;;;;;5088440;28;20794;-57
2023/09/21 11:07:29;;;;;;;3.50;1.90;;;24.10;73.50;;;;;;5097571;28;20486;-57
2023/09/21 11:09:56;;;;;;;1.60;1.43;;;23.90;73.70;;;;;;5083287;28;20896;-57
2023/09/21 11:12:23;;;;;;;2.73;1.77;;;23.90;74.50;;;;;;5078410;28;20444;-57
2023/09/21 11:14:50;;;;;;;1.50;1.37;;;23.70;74.10;;;;;;5092113;28;20443;-57
2023/09/21 11:17:17;;;;;;;4.73;1.80;;;23.70;74.20;;;;;;5087947;28;20434;-57
2023/09/21 11:19:46;;;;;;;4.40;2.10;;;23.60;74.50;;;;;;5095742;28;20467;-57
2023/09/21 11:22:13;;;;;;;5.30;2.00;;;23.60;74.80;;;;;;5094884;28;20946;-57
2023/09/21 11:24:40;;;;;;;2.90;1.70;;;23.60;74.90;;;;;;5077542;28;20456;-57
2023/09/21 11:27:09;;;;;;;2.50;1.90;;;23.60;74.90;;;;;;5083024;28;20476;-57
2023/09/21 11:29:38;;;;;;;3.20;1.90;;;23.60;75.20;;;;;;5076891;28;20469;-57
2023/09/21 11:32:07;;;;;;;2.83;1.70;;;23.60;75.10;;;;;;5077936;28;20498;-57
2023/09/21 11:34:36;;;;;;;2.07;1.97;;;23.60;75.20;;;;;;5083664;28;20470;-57
2023/09/21 11:37:05;;;;;;;3.20;1.43;;;23.60;75.20;;;;;;5095475;28;20451;-58
2023/09/21 11:39:32;;;;;;;5.83;1.90;;;23.60;75.40;;;;;;5097108;28;20463;-57
2023/09/21 11:41:59;;;;;;;6.13;1.70;;;23.60;76.00;;;;;;5097143;28;20462;-58
2023/09/21 11:44:29;;;;;;;4.30;2.33;;;23.60;75.90;;;;;;5095393;28;20444;-57
2023/09/21 11:46:58;;;;;;;2.80;2.20;;;23.60;75.80;;;;;;5096887;28;20512;-57
2023/09/21 11:49:40;;;;;;;7.47;2.47;;;23.50;75.90;;;;;;5095160;28;20459;-58
2023/09/21 11:52:10;;;;;;;3.30;2.10;;;23.50;77.00;;;;;;5094780;28;20498;-57
2023/09/21 11:54:38;;;;;;;2.97;1.70;;;23.40;77.50;;;;;;5094430;28;20475;-56
2023/09/21 11:57:06;;;;;;;4.80;2.20;;;23.30;78.40;;;;;;5076400;28;20449;-57
2023/09/21 11:59:34;;;;;;;4.17;1.90;;;23.30;79.20;;;;;;5076404;28;20554;-56
2023/09/21 12:02:03;;;;;;;2.50;2.30;;;23.30;79.80;;;;;;5080087;28;20440;-56
2023/09/21 12:04:31;;;;;;;2.50;2.00;;;23.30;80.20;;;;;;5080068;28;20844;-56
2023/09/21 12:06:59;;;;;;;2.73;1.97;;;23.40;80.60;;;;;;5095753;28;20458;-57
2023/09/21 12:09:27;;;;;;;2.60;2.07;;;23.50;81.00;;;;;;5096536;28;20491;-56
2023/09/21 12:11:55;;;;;;;6.67;1.90;;;23.50;80.50;;;;;;5094880;28;20953;-57
2023/09/21 12:14:22;;;;;;;3.07;2.20;;;23.60;80.70;;;;;;5076900;28;20452;-57
2023/09/21 12:16:50;;;;;;;4.17;1.77;;;23.60;80.90;;;;;;5076012;28;20487;-57
2023/09/21 12:19:18;;;;;;;2.50;1.93;;;23.70;80.40;;;;;;5075884;28;20496;-58
2023/09/21 12:21:45;;;;;;;3.67;1.83;;;23.60;80.10;;;;;;5076962;28;20484;-56
2023/09/21 12:24:12;;;;;;;5.23;2.30;;;23.70;80.50;;;;;;5093256;28;20463;-57
2023/09/21 12:26:41;;;;;;;3.23;2.50;;;23.70;79.90;;;;;;5096092;28;20450;-57
2023/09/21 12:29:08;;;;;;;3.40;2.60;;;23.80;79.40;;;;;;5093833;28;20927;-57
2023/09/21 12:31:36;;;;;;;4.90;2.03;;;23.80;79.00;;;;;;5095866;28;20450;-57
2023/09/21 12:34:03;;;;;;;2.30;2.10;;;23.80;78.30;;;;;;5095592;28;20444;-57
2023/09/21 12:36:30;;;;;;;2.73;1.97;;;23.80;78.10;;;;;;5085188;28;20445;-57
2023/09/21 12:38:58;;;;;;;3.07;2.00;;;23.80;78.50;;;;;;5076225;28;21001;-57
2023/09/21 12:41:26;;;;;;;3.33;2.50;;;23.70;78.80;;;;;;5075250;28;20938;-57
2023/09/21 12:43:54;;;;;;;2.67;2.40;;;23.60;79.20;;;;;;5076504;28;20440;-57
2023/09/21 12:46:21;;;;;;;3.00;2.17;;;23.70;79.80;;;;;;5084814;28;20985;-57
2023/09/21 12:48:48;;;;;;;3.20;2.03;;;23.80;80.80;;;;;;5088890;28;20472;-57
2023/09/21 12:51:15;;;;;;;3.53;2.17;;;23.80;80.70;;;;;;5094639;28;20933;-57